sensor_id;sensor_type;location;lat;lon;timestamp;pressure;altitude;pressure_sealevel;temperature;humidity
57250;BME280;43102;52.014;-0.680;2023-04-21T00:00:00;100967;;;8.15;75.96
57250;BME280;43102;52.014;-0.680;2023-04-21T00:01:00;100958;;;8.26;75.83
57250;BME280;43102;52.014;-0.680;2023-04-21T00:02:00;100958;;;8.26;75.83
57250;BME280;43102;52.014;-0.680;2023-04-21T00:03:00;100958;;;8.26;75.83
57250;BME280;43102;52.014;-0.680;2023-04-21T00:04:00;100958;;;8.26;75.83
57250;BME280;43102;52.014;-0.680;2023-04-21T00:05:00;100958;;;8.26;75.83
57250;BME280;43102;52.014;-0.680;2023-04-21T00:06:00;100949;;;8.21;76.09
57250;BME280;43102;52.014;-0.680;2023-04-21T00:07:00;100949;;;8.21;76.09
57250;BME280;43102;52.014;-0.680;2023-04-21T00:08:00;100949;;;8.21;76.09
57250;BME280;43102;52.014;-0.680;2023-04-21T00:09:00;100949;;;8.21;76.09
57250;BME280;43102;52.014;-0.680;2023-04-21T00:10:00;100949;;;8.21;76.09
57250;BME280;43102;52.014;-0.680;2023-04-21T00:11:00;100956;;;8.25;75.92
57250;BME280;43102;52.014;-0.680;2023-04-21T00:12:00;100956;;;8.25;75.92
57250;BME280;43102;52.014;-0.680;2023-04-21T00:13:00;100956;;;8.25;75.92
57250;BME280;43102;52.014;-0.680;2023-04-21T00:14:00;100956;;;8.25;75.92
57250;BME280;43102;52.014;-0.680;2023-04-21T00:15:00;100956;;;8.25;75.92
57250;BME280;43102;52.014;-0.680;2023-04-21T00:16:00;100944;;;8.32;75.88
57250;BME280;43102;52.014;-0.680;2023-04-21T00:17:00;100944;;;8.32;75.88
57250;BME280;43102;52.014;-0.680;2023-04-21T00:18:00;100944;;;8.32;75.88
57250;BME280;43102;52.014;-0.680;2023-04-21T00:19:00;100944;;;8.32;75.88
57250;BME280;43102;52.014;-0.680;2023-04-21T00:20:00;100944;;;8.32;75.88
57250;BME280;43102;52.014;-0.680;2023-04-21T00:21:00;100937;;;8.23;76.07
57250;BME280;43102;52.014;-0.680;2023-04-21T00:22:00;100937;;;8.23;76.07
57250;BME280;43102;52.014;-0.680;2023-04-21T00:23:00;100937;;;8.23;76.07
57250;BME280;43102;52.014;-0.680;2023-04-21T00:24:00;100937;;;8.23;76.07
57250;BME280;43102;52.014;-0.680;2023-04-21T00:25:00;100937;;;8.23;76.07
57250;BME280;43102;52.014;-0.680;2023-04-21T00:26:00;100933;;;8.15;76.19
57250;BME280;43102;52.014;-0.680;2023-04-21T00:27:00;100933;;;8.15;76.19
57250;BME280;43102;52.014;-0.680;2023-04-21T00:28:00;100933;;;8.15;76.19
57250;BME280;43102;52.014;-0.680;2023-04-21T00:29:00;100933;;;8.15;76.19
57250;BME280;43102;52.014;-0.680;2023-04-21T00:30:00;100933;;;8.15;76.19
57250;BME280;43102;52.014;-0.680;2023-04-21T00:31:00;100933;;;8.18;75.84
57250;BME280;43102;52.014;-0.680;2023-04-21T00:32:00;100933;;;8.18;75.84
57250;BME280;43102;52.014;-0.680;2023-04-21T00:33:00;100933;;;8.18;75.84
57250;BME280;43102;52.014;-0.680;2023-04-21T00:34:00;100933;;;8.18;75.84
57250;BME280;43102;52.014;-0.680;2023-04-21T00:35:00;100933;;;8.18;75.84
57250;BME280;43102;52.014;-0.680;2023-04-21T00:36:00;100933;;;8.09;75.90
57250;BME280;43102;52.014;-0.680;2023-04-21T00:37:00;100933;;;8.09;75.90
57250;BME280;43102;52.014;-0.680;2023-04-21T00:38:00;100933;;;8.09;75.90
57250;BME280;43102;52.014;-0.680;2023-04-21T00:39:00;100933;;;8.09;75.90
57250;BME280;43102;52.014;-0.680;2023-04-21T00:40:00;100933;;;8.09;75.90
57250;BME280;43102;52.014;-0.680;2023-04-21T00:41:00;100930;;;8.07;75.77
57250;BME280;43102;52.014;-0.680;2023-04-21T00:42:00;100930;;;8.07;75.77
57250;BME280;43102;52.014;-0.680;2023-04-21T00:43:00;100930;;;8.07;75.77
57250;BME280;43102;52.014;-0.680;2023-04-21T00:44:03;100930;;;8.07;75.77
57250;BME280;43102;52.014;-0.680;2023-04-21T00:45:00;100930;;;8.07;75.77
57250;BME280;43102;52.014;-0.680;2023-04-21T00:46:00;100923;;;8.03;75.70
57250;BME280;43102;52.014;-0.680;2023-04-21T00:47:00;100923;;;8.03;75.70
57250;BME280;43102;52.014;-0.680;2023-04-21T00:48:00;100923;;;8.03;75.70
57250;BME280;43102;52.014;-0.680;2023-04-21T00:49:02;100923;;;8.03;75.70
57250;BME280;43102;52.014;-0.680;2023-04-21T00:50:00;100923;;;8.03;75.70
57250;BME280;43102;52.014;-0.680;2023-04-21T00:51:00;100914;;;7.99;75.70
57250;BME280;43102;52.014;-0.680;2023-04-21T00:52:00;100914;;;7.99;75.70
57250;BME280;43102;52.014;-0.680;2023-04-21T00:53:00;100914;;;7.99;75.70
57250;BME280;43102;52.014;-0.680;2023-04-21T00:54:02;100914;;;7.99;75.70
57250;BME280;43102;52.014;-0.680;2023-04-21T00:55:00;100914;;;7.99;75.70
57250;BME280;43102;52.014;-0.680;2023-04-21T00:56:00;100916;;;7.98;75.63
57250;BME280;43102;52.014;-0.680;2023-04-21T00:57:00;100916;;;7.98;75.63
57250;BME280;43102;52.014;-0.680;2023-04-21T00:58:00;100916;;;7.98;75.63
57250;BME280;43102;52.014;-0.680;2023-04-21T00:59:00;100916;;;7.98;75.63
57250;BME280;43102;52.014;-0.680;2023-04-21T01:00:00;100916;;;7.98;75.63
57250;BME280;43102;52.014;-0.680;2023-04-21T01:01:00;100910;;;7.94;75.57
57250;BME280;43102;52.014;-0.680;2023-04-21T01:02:00;100910;;;7.94;75.57
57250;BME280;43102;52.014;-0.680;2023-04-21T01:03:00;100910;;;7.94;75.57
57250;BME280;43102;52.014;-0.680;2023-04-21T01:04:00;100910;;;7.94;75.57
57250;BME280;43102;52.014;-0.680;2023-04-21T01:05:00;100910;;;7.94;75.57
57250;BME280;43102;52.014;-0.680;2023-04-21T01:06:00;100912;;;7.90;75.53
57250;BME280;43102;52.014;-0.680;2023-04-21T01:07:00;100912;;;7.90;75.53
57250;BME280;43102;52.014;-0.680;2023-04-21T01:08:00;100912;;;7.90;75.53
57250;BME280;43102;52.014;-0.680;2023-04-21T01:09:00;100912;;;7.90;75.53
57250;BME280;43102;52.014;-0.680;2023-04-21T01:10:00;100912;;;7.90;75.53
57250;BME280;43102;52.014;-0.680;2023-04-21T01:11:00;100907;;;7.88;75.59
57250;BME280;43102;52.014;-0.680;2023-04-21T01:13:00;100907;;;7.88;75.59
57250;BME280;43102;52.014;-0.680;2023-04-21T01:14:00;100907;;;7.88;75.59
57250;BME280;43102;52.014;-0.680;2023-04-21T01:15:00;100907;;;7.88;75.59
57250;BME280;43102;52.014;-0.680;2023-04-21T01:16:00;100901;;;7.82;75.58
57250;BME280;43102;52.014;-0.680;2023-04-21T01:17:00;100901;;;7.82;75.58
57250;BME280;43102;52.014;-0.680;2023-04-21T01:18:00;100901;;;7.82;75.58
57250;BME280;43102;52.014;-0.680;2023-04-21T01:19:00;100901;;;7.82;75.58
57250;BME280;43102;52.014;-0.680;2023-04-21T01:20:00;100901;;;7.82;75.58
57250;BME280;43102;52.014;-0.680;2023-04-21T01:21:00;100889;;;7.76;75.74
57250;BME280;43102;52.014;-0.680;2023-04-21T01:22:00;100889;;;7.76;75.74
57250;BME280;43102;52.014;-0.680;2023-04-21T01:23:00;100889;;;7.76;75.74
57250;BME280;43102;52.014;-0.680;2023-04-21T01:24:00;100889;;;7.76;75.74
57250;BME280;43102;52.014;-0.680;2023-04-21T01:25:00;100889;;;7.76;75.74
57250;BME280;43102;52.014;-0.680;2023-04-21T01:26:00;100883;;;7.78;75.77
57250;BME280;43102;52.014;-0.680;2023-04-21T01:27:00;100883;;;7.78;75.77
57250;BME280;43102;52.014;-0.680;2023-04-21T01:28:00;100883;;;7.78;75.77
57250;BME280;43102;52.014;-0.680;2023-04-21T01:29:00;100883;;;7.78;75.77
57250;BME280;43102;52.014;-0.680;2023-04-21T01:30:00;100883;;;7.78;75.77
57250;BME280;43102;52.014;-0.680;2023-04-21T01:31:00;100873;;;7.81;75.81
57250;BME280;43102;52.014;-0.680;2023-04-21T01:32:04;100873;;;7.81;75.81
57250;BME280;43102;52.014;-0.680;2023-04-21T01:33:00;100873;;;7.81;75.81
57250;BME280;43102;52.014;-0.680;2023-04-21T01:34:02;100873;;;7.81;75.81
57250;BME280;43102;52.014;-0.680;2023-04-21T01:35:00;100873;;;7.81;75.81
57250;BME280;43102;52.014;-0.680;2023-04-21T01:36:00;100866;;;7.77;75.89
57250;BME280;43102;52.014;-0.680;2023-04-21T01:37:00;100866;;;7.77;75.89
57250;BME280;43102;52.014;-0.680;2023-04-21T01:38:00;100866;;;7.77;75.89
57250;BME280;43102;52.014;-0.680;2023-04-21T01:39:00;100866;;;7.77;75.89
57250;BME280;43102;52.014;-0.680;2023-04-21T01:40:01;100866;;;7.77;75.89
57250;BME280;43102;52.014;-0.680;2023-04-21T01:41:00;100859;;;7.79;75.85
57250;BME280;43102;52.014;-0.680;2023-04-21T01:42:00;100859;;;7.79;75.85
57250;BME280;43102;52.014;-0.680;2023-04-21T01:43:00;100859;;;7.79;75.85
57250;BME280;43102;52.014;-0.680;2023-04-21T01:44:00;100859;;;7.79;75.85
57250;BME280;43102;52.014;-0.680;2023-04-21T01:45:00;100859;;;7.79;75.85
57250;BME280;43102;52.014;-0.680;2023-04-21T01:46:00;100854;;;7.81;75.96
57250;BME280;43102;52.014;-0.680;2023-04-21T01:47:00;100854;;;7.81;75.96
57250;BME280;43102;52.014;-0.680;2023-04-21T01:48:00;100854;;;7.81;75.96
57250;BME280;43102;52.014;-0.680;2023-04-21T01:49:00;100854;;;7.81;75.96
57250;BME280;43102;52.014;-0.680;2023-04-21T01:50:00;100854;;;7.81;75.96
57250;BME280;43102;52.014;-0.680;2023-04-21T01:51:00;100856;;;7.81;75.98
57250;BME280;43102;52.014;-0.680;2023-04-21T01:52:00;100856;;;7.81;75.98
57250;BME280;43102;52.014;-0.680;2023-04-21T01:53:00;100856;;;7.81;75.98
57250;BME280;43102;52.014;-0.680;2023-04-21T01:54:00;100856;;;7.81;75.98
57250;BME280;43102;52.014;-0.680;2023-04-21T01:55:00;100856;;;7.81;75.98
57250;BME280;43102;52.014;-0.680;2023-04-21T01:56:00;100852;;;7.81;76.02
57250;BME280;43102;52.014;-0.680;2023-04-21T01:57:00;100852;;;7.81;76.02
57250;BME280;43102;52.014;-0.680;2023-04-21T01:58:00;100852;;;7.81;76.02
57250;BME280;43102;52.014;-0.680;2023-04-21T01:59:00;100852;;;7.81;76.02
57250;BME280;43102;52.014;-0.680;2023-04-21T02:00:00;100852;;;7.81;76.02
57250;BME280;43102;52.014;-0.680;2023-04-21T02:01:00;100835;;;7.83;76.13
57250;BME280;43102;52.014;-0.680;2023-04-21T02:02:00;100835;;;7.83;76.13
57250;BME280;43102;52.014;-0.680;2023-04-21T02:03:00;100835;;;7.83;76.13
57250;BME280;43102;52.014;-0.680;2023-04-21T02:04:01;100835;;;7.83;76.13
57250;BME280;43102;52.014;-0.680;2023-04-21T02:05:00;100835;;;7.83;76.13
57250;BME280;43102;52.014;-0.680;2023-04-21T02:06:00;100832;;;7.78;76.28
57250;BME280;43102;52.014;-0.680;2023-04-21T02:07:00;100832;;;7.78;76.28
57250;BME280;43102;52.014;-0.680;2023-04-21T02:08:00;100832;;;7.78;76.28
57250;BME280;43102;52.014;-0.680;2023-04-21T02:09:00;100832;;;7.78;76.28
57250;BME280;43102;52.014;-0.680;2023-04-21T02:10:00;100832;;;7.78;76.28
57250;BME280;43102;52.014;-0.680;2023-04-21T02:11:00;100826;;;7.86;76.19
57250;BME280;43102;52.014;-0.680;2023-04-21T02:12:00;100826;;;7.86;76.19
57250;BME280;43102;52.014;-0.680;2023-04-21T02:13:00;100826;;;7.86;76.19
57250;BME280;43102;52.014;-0.680;2023-04-21T02:14:00;100826;;;7.86;76.19
57250;BME280;43102;52.014;-0.680;2023-04-21T02:15:00;100826;;;7.86;76.19
57250;BME280;43102;52.014;-0.680;2023-04-21T02:16:00;100818;;;7.93;76.11
57250;BME280;43102;52.014;-0.680;2023-04-21T02:17:00;100818;;;7.93;76.11
57250;BME280;43102;52.014;-0.680;2023-04-21T02:18:00;100818;;;7.93;76.11
57250;BME280;43102;52.014;-0.680;2023-04-21T02:19:00;100818;;;7.93;76.11
57250;BME280;43102;52.014;-0.680;2023-04-21T02:20:00;100818;;;7.93;76.11
57250;BME280;43102;52.014;-0.680;2023-04-21T02:21:00;100817;;;7.92;76.24
57250;BME280;43102;52.014;-0.680;2023-04-21T02:22:00;100817;;;7.92;76.24
57250;BME280;43102;52.014;-0.680;2023-04-21T02:23:00;100817;;;7.92;76.24
57250;BME280;43102;52.014;-0.680;2023-04-21T02:24:00;100817;;;7.92;76.24
57250;BME280;43102;52.014;-0.680;2023-04-21T02:25:00;100817;;;7.92;76.24
57250;BME280;43102;52.014;-0.680;2023-04-21T02:26:00;100811;;;8.02;76.16
57250;BME280;43102;52.014;-0.680;2023-04-21T02:27:00;100811;;;8.02;76.16
57250;BME280;43102;52.014;-0.680;2023-04-21T02:28:00;100811;;;8.02;76.16
57250;BME280;43102;52.014;-0.680;2023-04-21T02:29:00;100811;;;8.02;76.16
57250;BME280;43102;52.014;-0.680;2023-04-21T02:30:00;100811;;;8.02;76.16
57250;BME280;43102;52.014;-0.680;2023-04-21T02:31:00;100808;;;8.01;76.08
57250;BME280;43102;52.014;-0.680;2023-04-21T02:32:00;100808;;;8.01;76.08
57250;BME280;43102;52.014;-0.680;2023-04-21T02:33:00;100808;;;8.01;76.08
57250;BME280;43102;52.014;-0.680;2023-04-21T02:34:00;100808;;;8.01;76.08
57250;BME280;43102;52.014;-0.680;2023-04-21T02:35:00;100808;;;8.01;76.08
57250;BME280;43102;52.014;-0.680;2023-04-21T02:36:00;100801;;;8.00;75.97
57250;BME280;43102;52.014;-0.680;2023-04-21T02:37:00;100801;;;8.00;75.97
57250;BME280;43102;52.014;-0.680;2023-04-21T02:38:00;100801;;;8.00;75.97
57250;BME280;43102;52.014;-0.680;2023-04-21T02:39:00;100801;;;8.00;75.97
57250;BME280;43102;52.014;-0.680;2023-04-21T02:40:00;100801;;;8.00;75.97
57250;BME280;43102;52.014;-0.680;2023-04-21T02:41:00;100791;;;7.92;76.01
57250;BME280;43102;52.014;-0.680;2023-04-21T02:42:00;100791;;;7.92;76.01
57250;BME280;43102;52.014;-0.680;2023-04-21T02:43:00;100791;;;7.92;76.01
57250;BME280;43102;52.014;-0.680;2023-04-21T02:44:00;100791;;;7.92;76.01
57250;BME280;43102;52.014;-0.680;2023-04-21T02:45:00;100791;;;7.92;76.01
57250;BME280;43102;52.014;-0.680;2023-04-21T02:46:04;100790;;;7.96;75.98
57250;BME280;43102;52.014;-0.680;2023-04-21T02:47:00;100790;;;7.96;75.98
57250;BME280;43102;52.014;-0.680;2023-04-21T02:48:00;100790;;;7.96;75.98
57250;BME280;43102;52.014;-0.680;2023-04-21T02:49:00;100790;;;7.96;75.98
57250;BME280;43102;52.014;-0.680;2023-04-21T02:50:00;100790;;;7.96;75.98
57250;BME280;43102;52.014;-0.680;2023-04-21T02:51:00;100778;;;7.99;75.92
57250;BME280;43102;52.014;-0.680;2023-04-21T02:52:00;100778;;;7.99;75.92
57250;BME280;43102;52.014;-0.680;2023-04-21T02:53:00;100778;;;7.99;75.92
57250;BME280;43102;52.014;-0.680;2023-04-21T02:54:00;100778;;;7.99;75.92
57250;BME280;43102;52.014;-0.680;2023-04-21T02:55:00;100778;;;7.99;75.92
57250;BME280;43102;52.014;-0.680;2023-04-21T02:56:00;100768;;;7.93;75.87
57250;BME280;43102;52.014;-0.680;2023-04-21T02:57:00;100768;;;7.93;75.87
57250;BME280;43102;52.014;-0.680;2023-04-21T02:58:00;100768;;;7.93;75.87
57250;BME280;43102;52.014;-0.680;2023-04-21T02:59:00;100768;;;7.93;75.87
57250;BME280;43102;52.014;-0.680;2023-04-21T03:00:00;100768;;;7.93;75.87
57250;BME280;43102;52.014;-0.680;2023-04-21T03:01:00;100761;;;7.95;75.96
57250;BME280;43102;52.014;-0.680;2023-04-21T03:02:00;100761;;;7.95;75.96
57250;BME280;43102;52.014;-0.680;2023-04-21T03:03:00;100761;;;7.95;75.96
57250;BME280;43102;52.014;-0.680;2023-04-21T03:04:00;100761;;;7.95;75.96
57250;BME280;43102;52.014;-0.680;2023-04-21T03:05:00;100761;;;7.95;75.96
57250;BME280;43102;52.014;-0.680;2023-04-21T03:06:00;100758;;;8.01;76.03
57250;BME280;43102;52.014;-0.680;2023-04-21T03:07:00;100758;;;8.01;76.03
57250;BME280;43102;52.014;-0.680;2023-04-21T03:08:00;100758;;;8.01;76.03
57250;BME280;43102;52.014;-0.680;2023-04-21T03:09:00;100758;;;8.01;76.03
57250;BME280;43102;52.014;-0.680;2023-04-21T03:10:00;100758;;;8.01;76.03
57250;BME280;43102;52.014;-0.680;2023-04-21T03:11:00;100749;;;7.96;75.90
57250;BME280;43102;52.014;-0.680;2023-04-21T03:12:00;100749;;;7.96;75.90
57250;BME280;43102;52.014;-0.680;2023-04-21T03:13:00;100749;;;7.96;75.90
57250;BME280;43102;52.014;-0.680;2023-04-21T03:14:00;100749;;;7.96;75.90
57250;BME280;43102;52.014;-0.680;2023-04-21T03:15:00;100749;;;7.96;75.90
57250;BME280;43102;52.014;-0.680;2023-04-21T03:16:00;100754;;;7.91;76.06
57250;BME280;43102;52.014;-0.680;2023-04-21T03:17:00;100754;;;7.91;76.06
57250;BME280;43102;52.014;-0.680;2023-04-21T03:18:00;100754;;;7.91;76.06
57250;BME280;43102;52.014;-0.680;2023-04-21T03:19:00;100754;;;7.91;76.06
57250;BME280;43102;52.014;-0.680;2023-04-21T03:20:00;100754;;;7.91;76.06
57250;BME280;43102;52.014;-0.680;2023-04-21T03:21:00;100749;;;7.95;75.96
57250;BME280;43102;52.014;-0.680;2023-04-21T03:22:00;100749;;;7.95;75.96
57250;BME280;43102;52.014;-0.680;2023-04-21T03:23:00;100749;;;7.95;75.96
57250;BME280;43102;52.014;-0.680;2023-04-21T03:24:00;100749;;;7.95;75.96
57250;BME280;43102;52.014;-0.680;2023-04-21T03:25:00;100749;;;7.95;75.96
57250;BME280;43102;52.014;-0.680;2023-04-21T03:26:00;100740;;;8.00;75.89
57250;BME280;43102;52.014;-0.680;2023-04-21T03:27:00;100740;;;8.00;75.89
57250;BME280;43102;52.014;-0.680;2023-04-21T03:28:00;100740;;;8.00;75.89
57250;BME280;43102;52.014;-0.680;2023-04-21T03:29:00;100740;;;8.00;75.89
57250;BME280;43102;52.014;-0.680;2023-04-21T03:30:00;100740;;;8.00;75.89
57250;BME280;43102;52.014;-0.680;2023-04-21T03:31:00;100726;;;8.06;75.94
57250;BME280;43102;52.014;-0.680;2023-04-21T03:32:00;100726;;;8.06;75.94
57250;BME280;43102;52.014;-0.680;2023-04-21T03:33:00;100726;;;8.06;75.94
57250;BME280;43102;52.014;-0.680;2023-04-21T03:34:00;100726;;;8.06;75.94
57250;BME280;43102;52.014;-0.680;2023-04-21T03:35:00;100726;;;8.06;75.94
57250;BME280;43102;52.014;-0.680;2023-04-21T03:36:00;100719;;;8.05;75.81
57250;BME280;43102;52.014;-0.680;2023-04-21T03:37:00;100719;;;8.05;75.81
57250;BME280;43102;52.014;-0.680;2023-04-21T03:38:00;100719;;;8.05;75.81
57250;BME280;43102;52.014;-0.680;2023-04-21T03:39:00;100719;;;8.05;75.81
57250;BME280;43102;52.014;-0.680;2023-04-21T03:40:00;100719;;;8.05;75.81
57250;BME280;43102;52.014;-0.680;2023-04-21T03:41:00;100708;;;8.10;75.64
57250;BME280;43102;52.014;-0.680;2023-04-21T03:42:00;100708;;;8.10;75.64
57250;BME280;43102;52.014;-0.680;2023-04-21T03:43:00;100708;;;8.10;75.64
57250;BME280;43102;52.014;-0.680;2023-04-21T03:44:00;100708;;;8.10;75.64
57250;BME280;43102;52.014;-0.680;2023-04-21T03:45:00;100708;;;8.10;75.64
57250;BME280;43102;52.014;-0.680;2023-04-21T03:46:00;100710;;;8.05;75.81
57250;BME280;43102;52.014;-0.680;2023-04-21T03:47:00;100710;;;8.05;75.81
57250;BME280;43102;52.014;-0.680;2023-04-21T03:48:00;100710;;;8.05;75.81
57250;BME280;43102;52.014;-0.680;2023-04-21T03:49:00;100710;;;8.05;75.81
57250;BME280;43102;52.014;-0.680;2023-04-21T03:50:01;100710;;;8.05;75.81
57250;BME280;43102;52.014;-0.680;2023-04-21T03:51:00;100680;;;8.02;75.98
57250;BME280;43102;52.014;-0.680;2023-04-21T03:52:00;100680;;;8.02;75.98
57250;BME280;43102;52.014;-0.680;2023-04-21T03:53:00;100680;;;8.02;75.98
57250;BME280;43102;52.014;-0.680;2023-04-21T03:54:00;100680;;;8.02;75.98
57250;BME280;43102;52.014;-0.680;2023-04-21T03:55:00;100680;;;8.02;75.98
57250;BME280;43102;52.014;-0.680;2023-04-21T03:56:00;100669;;;8.02;76.09
57250;BME280;43102;52.014;-0.680;2023-04-21T03:57:00;100669;;;8.02;76.09
57250;BME280;43102;52.014;-0.680;2023-04-21T03:58:00;100669;;;8.02;76.09
57250;BME280;43102;52.014;-0.680;2023-04-21T03:59:00;100669;;;8.02;76.09
57250;BME280;43102;52.014;-0.680;2023-04-21T04:00:00;100669;;;8.02;76.09
57250;BME280;43102;52.014;-0.680;2023-04-21T04:01:00;100667;;;8.00;76.35
57250;BME280;43102;52.014;-0.680;2023-04-21T04:02:00;100667;;;8.00;76.35
57250;BME280;43102;52.014;-0.680;2023-04-21T04:03:00;100667;;;8.00;76.35
57250;BME280;43102;52.014;-0.680;2023-04-21T04:04:00;100667;;;8.00;76.35
57250;BME280;43102;52.014;-0.680;2023-04-21T04:05:00;100667;;;8.00;76.35
57250;BME280;43102;52.014;-0.680;2023-04-21T04:06:00;100658;;;8.06;76.43
57250;BME280;43102;52.014;-0.680;2023-04-21T04:07:00;100658;;;8.06;76.43
57250;BME280;43102;52.014;-0.680;2023-04-21T04:08:00;100658;;;8.06;76.43
57250;BME280;43102;52.014;-0.680;2023-04-21T04:09:00;100658;;;8.06;76.43
57250;BME280;43102;52.014;-0.680;2023-04-21T04:10:00;100658;;;8.06;76.43
57250;BME280;43102;52.014;-0.680;2023-04-21T04:11:00;100661;;;8.04;76.80
57250;BME280;43102;52.014;-0.680;2023-04-21T04:12:00;100661;;;8.04;76.80
57250;BME280;43102;52.014;-0.680;2023-04-21T04:13:00;100661;;;8.04;76.80
57250;BME280;43102;52.014;-0.680;2023-04-21T04:14:00;100661;;;8.04;76.80
57250;BME280;43102;52.014;-0.680;2023-04-21T04:15:00;100661;;;8.04;76.80
57250;BME280;43102;52.014;-0.680;2023-04-21T04:16:00;100657;;;7.95;77.40
57250;BME280;43102;52.014;-0.680;2023-04-21T04:17:00;100657;;;7.95;77.40
57250;BME280;43102;52.014;-0.680;2023-04-21T04:18:00;100657;;;7.95;77.40
57250;BME280;43102;52.014;-0.680;2023-04-21T04:19:00;100657;;;7.95;77.40
57250;BME280;43102;52.014;-0.680;2023-04-21T04:20:00;100657;;;7.95;77.40
57250;BME280;43102;52.014;-0.680;2023-04-21T04:21:07;100640;;;8.02;77.47
57250;BME280;43102;52.014;-0.680;2023-04-21T04:22:00;100640;;;8.02;77.47
57250;BME280;43102;52.014;-0.680;2023-04-21T04:23:00;100640;;;8.02;77.47
57250;BME280;43102;52.014;-0.680;2023-04-21T04:24:00;100640;;;8.02;77.47
57250;BME280;43102;52.014;-0.680;2023-04-21T04:25:00;100640;;;8.02;77.47
57250;BME280;43102;52.014;-0.680;2023-04-21T04:26:00;100630;;;8.10;77.38
57250;BME280;43102;52.014;-0.680;2023-04-21T04:27:00;100630;;;8.10;77.38
57250;BME280;43102;52.014;-0.680;2023-04-21T04:28:00;100630;;;8.10;77.38
57250;BME280;43102;52.014;-0.680;2023-04-21T04:29:00;100630;;;8.10;77.38
57250;BME280;43102;52.014;-0.680;2023-04-21T04:30:00;100630;;;8.10;77.38
57250;BME280;43102;52.014;-0.680;2023-04-21T04:31:00;100628;;;8.07;77.87
57250;BME280;43102;52.014;-0.680;2023-04-21T04:32:00;100628;;;8.07;77.87
57250;BME280;43102;52.014;-0.680;2023-04-21T04:33:00;100628;;;8.07;77.87
57250;BME280;43102;52.014;-0.680;2023-04-21T04:34:00;100628;;;8.07;77.87
57250;BME280;43102;52.014;-0.680;2023-04-21T04:35:00;100628;;;8.07;77.87
57250;BME280;43102;52.014;-0.680;2023-04-21T04:36:00;100623;;;8.10;78.10
57250;BME280;43102;52.014;-0.680;2023-04-21T04:37:00;100623;;;8.10;78.10
57250;BME280;43102;52.014;-0.680;2023-04-21T04:38:00;100623;;;8.10;78.10
57250;BME280;43102;52.014;-0.680;2023-04-21T04:39:00;100623;;;8.10;78.10
57250;BME280;43102;52.014;-0.680;2023-04-21T04:40:00;100623;;;8.10;78.10
57250;BME280;43102;52.014;-0.680;2023-04-21T04:41:00;100611;;;8.04;78.73
57250;BME280;43102;52.014;-0.680;2023-04-21T04:42:00;100611;;;8.04;78.73
57250;BME280;43102;52.014;-0.680;2023-04-21T04:43:00;100611;;;8.04;78.73
57250;BME280;43102;52.014;-0.680;2023-04-21T04:44:00;100611;;;8.04;78.73
57250;BME280;43102;52.014;-0.680;2023-04-21T04:45:00;100611;;;8.04;78.73
57250;BME280;43102;52.014;-0.680;2023-04-21T04:46:00;100600;;;8.06;79.08
57250;BME280;43102;52.014;-0.680;2023-04-21T04:47:00;100600;;;8.06;79.08
57250;BME280;43102;52.014;-0.680;2023-04-21T04:48:00;100600;;;8.06;79.08
57250;BME280;43102;52.014;-0.680;2023-04-21T04:49:00;100600;;;8.06;79.08
57250;BME280;43102;52.014;-0.680;2023-04-21T04:50:00;100600;;;8.06;79.08
57250;BME280;43102;52.014;-0.680;2023-04-21T04:51:00;100597;;;8.00;79.93
57250;BME280;43102;52.014;-0.680;2023-04-21T04:52:00;100597;;;8.00;79.93
57250;BME280;43102;52.014;-0.680;2023-04-21T04:53:00;100597;;;8.00;79.93
57250;BME280;43102;52.014;-0.680;2023-04-21T04:54:00;100597;;;8.00;79.93
57250;BME280;43102;52.014;-0.680;2023-04-21T04:55:00;100597;;;8.00;79.93
57250;BME280;43102;52.014;-0.680;2023-04-21T04:56:00;100587;;;8.10;80.04
57250;BME280;43102;52.014;-0.680;2023-04-21T04:57:00;100587;;;8.10;80.04
57250;BME280;43102;52.014;-0.680;2023-04-21T04:58:00;100587;;;8.10;80.04
57250;BME280;43102;52.014;-0.680;2023-04-21T04:59:00;100587;;;8.10;80.04
57250;BME280;43102;52.014;-0.680;2023-04-21T05:00:00;100587;;;8.10;80.04
57250;BME280;43102;52.014;-0.680;2023-04-21T05:01:09;100586;;;8.11;80.50
57250;BME280;43102;52.014;-0.680;2023-04-21T05:02:00;100586;;;8.11;80.50
57250;BME280;43102;52.014;-0.680;2023-04-21T05:03:00;100586;;;8.11;80.50
57250;BME280;43102;52.014;-0.680;2023-04-21T05:04:00;100586;;;8.11;80.50
57250;BME280;43102;52.014;-0.680;2023-04-21T05:05:00;100586;;;8.11;80.50
57250;BME280;43102;52.014;-0.680;2023-04-21T05:06:00;100582;;;8.22;80.41
57250;BME280;43102;52.014;-0.680;2023-04-21T05:07:00;100582;;;8.22;80.41
57250;BME280;43102;52.014;-0.680;2023-04-21T05:08:00;100582;;;8.22;80.41
57250;BME280;43102;52.014;-0.680;2023-04-21T05:09:00;100582;;;8.22;80.41
57250;BME280;43102;52.014;-0.680;2023-04-21T05:10:00;100582;;;8.22;80.41
57250;BME280;43102;52.014;-0.680;2023-04-21T05:11:00;100577;;;8.24;80.65
57250;BME280;43102;52.014;-0.680;2023-04-21T05:12:00;100577;;;8.24;80.65
57250;BME280;43102;52.014;-0.680;2023-04-21T05:13:00;100577;;;8.24;80.65
57250;BME280;43102;52.014;-0.680;2023-04-21T05:14:00;100577;;;8.24;80.65
57250;BME280;43102;52.014;-0.680;2023-04-21T05:15:00;100577;;;8.24;80.65
57250;BME280;43102;52.014;-0.680;2023-04-21T05:16:00;100576;;;8.33;80.81
57250;BME280;43102;52.014;-0.680;2023-04-21T05:17:00;100576;;;8.33;80.81
57250;BME280;43102;52.014;-0.680;2023-04-21T05:18:00;100576;;;8.33;80.81
57250;BME280;43102;52.014;-0.680;2023-04-21T05:19:00;100576;;;8.33;80.81
57250;BME280;43102;52.014;-0.680;2023-04-21T05:20:00;100576;;;8.33;80.81
57250;BME280;43102;52.014;-0.680;2023-04-21T05:21:00;100568;;;8.33;81.47
57250;BME280;43102;52.014;-0.680;2023-04-21T05:22:00;100568;;;8.33;81.47
57250;BME280;43102;52.014;-0.680;2023-04-21T05:23:00;100568;;;8.33;81.47
57250;BME280;43102;52.014;-0.680;2023-04-21T05:24:00;100568;;;8.33;81.47
57250;BME280;43102;52.014;-0.680;2023-04-21T05:25:00;100568;;;8.33;81.47
57250;BME280;43102;52.014;-0.680;2023-04-21T05:26:00;100564;;;8.36;81.77
57250;BME280;43102;52.014;-0.680;2023-04-21T05:27:00;100564;;;8.36;81.77